sensor_id;sensor_type;location;lat;lon;timestamp;temperature;humidity
563;DHT22;266;49.514;8.294;2023-04-24T00:00:50;11.30;99.90
563;DHT22;266;49.514;8.294;2023-04-24T00:03:19;11.20;99.90
563;DHT22;266;49.514;8.294;2023-04-24T00:05:47;11.20;99.90
563;DHT22;266;49.514;8.294;2023-04-24T00:08:18;11.10;99.90
563;DHT22;266;49.514;8.294;2023-04-24T00:10:46;11.00;99.90
563;DHT22;266;49.514;8.294;2023-04-24T00:13:14;11.00;99.90
563;DHT22;266;49.514;8.294;2023-04-24T00:15:42;10.90;99.90
563;DHT22;266;49.514;8.294;2023-04-24T00:18:10;10.90;99.90
563;DHT22;266;49.514;8.294;2023-04-24T00:20:38;10.90;99.90
563;DHT22;266;49.514;8.294;2023-04-24T00:23:06;10.90;99.90
563;DHT22;266;49.514;8.294;2023-04-24T00:25:36;11.00;99.90
563;DHT22;266;49.514;8.294;2023-04-24T00:28:04;11.00;99.90
563;DHT22;266;49.514;8.294;2023-04-24T00:30:31;11.10;99.90
563;DHT22;266;49.514;8.294;2023-04-24T00:32:59;11.00;99.90
563;DHT22;266;49.514;8.294;2023-04-24T00:35:27;11.10;99.90
563;DHT22;266;49.514;8.294;2023-04-24T00:37:55;11.10;99.90
563;DHT22;266;49.514;8.294;2023-04-24T00:40:23;11.20;99.90
563;DHT22;266;49.514;8.294;2023-04-24T00:42:52;11.30;99.90
563;DHT22;266;49.514;8.294;2023-04-24T00:45:20;11.30;99.90
563;DHT22;266;49.514;8.294;2023-04-24T00:47:48;11.30;99.90
563;DHT22;266;49.514;8.294;2023-04-24T00:50:18;11.30;99.90
563;DHT22;266;49.514;8.294;2023-04-24T00:52:45;11.40;99.90
563;DHT22;266;49.514;8.294;2023-04-24T00:55:14;11.40;99.90
563;DHT22;266;49.514;8.294;2023-04-24T00:57:42;11.50;99.90
563;DHT22;266;49.514;8.294;2023-04-24T01:00:12;11.50;99.90
563;DHT22;266;49.514;8.294;2023-04-24T01:02:41;11.50;99.90
563;DHT22;266;49.514;8.294;2023-04-24T01:05:12;11.50;99.90
563;DHT22;266;49.514;8.294;2023-04-24T01:07:43;11.50;99.90
563;DHT22;266;49.514;8.294;2023-04-24T01:10:13;11.50;99.90
563;DHT22;266;49.514;8.294;2023-04-24T01:12:41;11.40;99.90
563;DHT22;266;49.514;8.294;2023-04-24T01:15:11;11.40;99.90
563;DHT22;266;49.514;8.294;2023-04-24T01:17:39;11.40;99.90
563;DHT22;266;49.514;8.294;2023-04-24T01:20:08;11.50;99.90
563;DHT22;266;49.514;8.294;2023-04-24T01:22:38;11.50;99.90
563;DHT22;266;49.514;8.294;2023-04-24T01:25:08;11.50;99.90
563;DHT22;266;49.514;8.294;2023-04-24T01:27:36;11.50;99.90
563;DHT22;266;49.514;8.294;2023-04-24T01:30:05;11.50;99.90
563;DHT22;266;49.514;8.294;2023-04-24T01:32:34;11.50;99.90
563;DHT22;266;49.514;8.294;2023-04-24T01:35:04;11.50;99.90
563;DHT22;266;49.514;8.294;2023-04-24T01:37:32;11.50;99.90
563;DHT22;266;49.514;8.294;2023-04-24T01:40:01;11.40;99.90
563;DHT22;266;49.514;8.294;2023-04-24T01:42:30;11.40;99.90
563;DHT22;266;49.514;8.294;2023-04-24T01:44:59;11.50;99.90
563;DHT22;266;49.514;8.294;2023-04-24T01:47:27;11.50;99.90
563;DHT22;266;49.514;8.294;2023-04-24T01:49:56;11.50;99.90
563;DHT22;266;49.514;8.294;2023-04-24T01:52:24;11.50;99.90
563;DHT22;266;49.514;8.294;2023-04-24T01:54:52;11.50;99.90
563;DHT22;266;49.514;8.294;2023-04-24T01:57:23;11.50;99.90
563;DHT22;266;49.514;8.294;2023-04-24T01:59:51;11.50;99.90
563;DHT22;266;49.514;8.294;2023-04-24T02:02:19;11.50;99.90
563;DHT22;266;49.514;8.294;2023-04-24T02:04:48;11.50;99.90
563;DHT22;266;49.514;8.294;2023-04-24T02:07:16;11.50;99.90
563;DHT22;266;49.514;8.294;2023-04-24T02:09:44;11.50;99.90
563;DHT22;266;49.514;8.294;2023-04-24T02:12:12;11.40;99.90
563;DHT22;266;49.514;8.294;2023-04-24T02:14:41;11.40;99.90
563;DHT22;266;49.514;8.294;2023-04-24T02:17:10;11.30;99.90
563;DHT22;266;49.514;8.294;2023-04-24T02:19:39;11.20;99.90
563;DHT22;266;49.514;8.294;2023-04-24T02:22:08;11.20;99.90
563;DHT22;266;49.514;8.294;2023-04-24T02:24:37;11.00;99.90
563;DHT22;266;49.514;8.294;2023-04-24T02:27:05;11.00;99.90
563;DHT22;266;49.514;8.294;2023-04-24T02:29:33;10.90;99.90
563;DHT22;266;49.514;8.294;2023-04-24T02:32:02;10.90;99.90
563;DHT22;266;49.514;8.294;2023-04-24T02:34:30;10.80;99.90
563;DHT22;266;49.514;8.294;2023-04-24T02:36:58;10.80;99.90
563;DHT22;266;49.514;8.294;2023-04-24T02:39:26;10.80;99.90
563;DHT22;266;49.514;8.294;2023-04-24T02:41:54;10.80;99.90
563;DHT22;266;49.514;8.294;2023-04-24T02:44:22;10.80;99.90
563;DHT22;266;49.514;8.294;2023-04-24T02:46:50;10.70;99.90
563;DHT22;266;49.514;8.294;2023-04-24T02:49:19;10.70;99.90
563;DHT22;266;49.514;8.294;2023-04-24T02:51:47;10.70;99.90
563;DHT22;266;49.514;8.294;2023-04-24T02:54:15;10.70;99.90
563;DHT22;266;49.514;8.294;2023-04-24T02:56:43;10.70;99.90
563;DHT22;266;49.514;8.294;2023-04-24T02:59:13;10.60;99.90
563;DHT22;266;49.514;8.294;2023-04-24T03:01:41;10.60;99.90
563;DHT22;266;49.514;8.294;2023-04-24T03:04:09;10.60;99.90
563;DHT22;266;49.514;8.294;2023-04-24T03:06:41;10.60;99.90
563;DHT22;266;49.514;8.294;2023-04-24T03:09:08;10.70;99.90
563;DHT22;266;49.514;8.294;2023-04-24T03:11:36;10.60;99.90
563;DHT22;266;49.514;8.294;2023-04-24T03:14:04;10.50;99.90
563;DHT22;266;49.514;8.294;2023-04-24T03:16:32;10.50;99.90
563;DHT22;266;49.514;8.294;2023-04-24T03:19:00;10.40;99.90
563;DHT22;266;49.514;8.294;2023-04-24T03:21:29;10.40;99.90
563;DHT22;266;49.514;8.294;2023-04-24T03:23:58;10.40;99.90
563;DHT22;266;49.514;8.294;2023-04-24T03:26:26;10.40;99.90
563;DHT22;266;49.514;8.294;2023-04-24T03:28:54;10.30;99.90
563;DHT22;266;49.514;8.294;2023-04-24T03:31:22;10.30;99.90
563;DHT22;266;49.514;8.294;2023-04-24T03:33:51;10.30;99.90
563;DHT22;266;49.514;8.294;2023-04-24T03:36:19;10.20;99.90
563;DHT22;266;49.514;8.294;2023-04-24T03:38:47;10.20;99.90
563;DHT22;266;49.514;8.294;2023-04-24T03:41:16;10.20;99.90
563;DHT22;266;49.514;8.294;2023-04-24T03:43:44;10.20;99.90
563;DHT22;266;49.514;8.294;2023-04-24T03:46:12;10.10;99.90
563;DHT22;266;49.514;8.294;2023-04-24T03:48:40;10.10;99.90
563;DHT22;266;49.514;8.294;2023-04-24T03:51:08;10.00;99.90
563;DHT22;266;49.514;8.294;2023-04-24T03:53:36;10.00;99.90
563;DHT22;266;49.514;8.294;2023-04-24T03:56:04;10.00;99.90
563;DHT22;266;49.514;8.294;2023-04-24T03:58:33;9.90;99.90
563;DHT22;266;49.514;8.294;2023-04-24T04:01:01;9.80;99.90
563;DHT22;266;49.514;8.294;2023-04-24T04:03:29;9.80;99.90
563;DHT22;266;49.514;8.294;2023-04-24T04:05:58;9.70;99.90
563;DHT22;266;49.514;8.294;2023-04-24T04:08:26;9.70;99.90
563;DHT22;266;49.514;8.294;2023-04-24T04:10:54;9.70;99.90
563;DHT22;266;49.514;8.294;2023-04-24T04:13:21;9.60;99.90
563;DHT22;266;49.514;8.294;2023-04-24T04:15:51;9.60;99.90
563;DHT22;266;49.514;8.294;2023-04-24T04:18:19;9.50;99.90
563;DHT22;266;49.514;8.294;2023-04-24T04:20:47;9.50;99.90
563;DHT22;266;49.514;8.294;2023-04-24T04:23:15;9.40;99.90
563;DHT22;266;49.514;8.294;2023-04-24T04:25:43;9.40;99.90
563;DHT22;266;49.514;8.294;2023-04-24T04:28:11;9.30;99.90
563;DHT22;266;49.514;8.294;2023-04-24T04:30:39;9.30;99.90
563;DHT22;266;49.514;8.294;2023-04-24T04:33:12;9.30;99.90
563;DHT22;266;49.514;8.294;2023-04-24T04:35:41;9.30;99.90
563;DHT22;266;49.514;8.294;2023-04-24T04:38:09;9.30;99.90
563;DHT22;266;49.514;8.294;2023-04-24T04:40:37;9.30;99.90
563;DHT22;266;49.514;8.294;2023-04-24T04:43:05;9.30;99.90
563;DHT22;266;49.514;8.294;2023-04-24T04:45:33;9.20;99.90
563;DHT22;266;49.514;8.294;2023-04-24T04:48:02;9.20;99.90
563;DHT22;266;49.514;8.294;2023-04-24T04:50:31;9.30;99.90
563;DHT22;266;49.514;8.294;2023-04-24T04:52:59;9.30;99.90
563;DHT22;266;49.514;8.294;2023-04-24T04:55:27;9.30;99.90
563;DHT22;266;49.514;8.294;2023-04-24T04:57:55;9.40;99.90
563;DHT22;266;49.514;8.294;2023-04-24T05:00:23;9.50;99.90
563;DHT22;266;49.514;8.294;2023-04-24T05:02:51;9.50;99.90
563;DHT22;266;49.514;8.294;2023-04-24T05:05:22;9.60;99.90
563;DHT22;266;49.514;8.294;2023-04-24T05:07:51;9.70;99.90
563;DHT22;266;49.514;8.294;2023-04-24T05:10:19;9.90;99.90
563;DHT22;266;49.514;8.294;2023-04-24T05:12:47;10.00;99.90
563;DHT22;266;49.514;8.294;2023-04-24T05:15:16;10.00;99.90
563;DHT22;266;49.514;8.294;2023-04-24T05:17:44;10.00;99.90
563;DHT22;266;49.514;8.294;2023-04-24T05:20:12;10.10;99.90
563;DHT22;266;49.514;8.294;2023-04-24T05:22:41;10.10;99.90
563;DHT22;266;49.514;8.294;2023-04-24T05:25:10;10.00;99.90
563;DHT22;266;49.514;8.294;2023-04-24T05:27:39;10.00;99.90
563;DHT22;266;49.514;8.294;2023-04-24T05:30:08;10.00;99.90
563;DHT22;266;49.514;8.294;2023-04-24T05:32:36;10.00;99.90
563;DHT22;266;49.514;8.294;2023-04-24T05:35:04;10.10;99.90
563;DHT22;266;49.514;8.294;2023-04-24T05:37:33;10.10;99.90
563;DHT22;266;49.514;8.294;2023-04-24T05:40:01;10.20;99.90
563;DHT22;266;49.514;8.294;2023-04-24T05:42:33;10.30;99.90
563;DHT22;266;49.514;8.294;2023-04-24T05:45:01;10.30;99.90
563;DHT22;266;49.514;8.294;2023-04-24T05:47:29;10.30;99.90
563;DHT22;266;49.514;8.294;2023-04-24T05:49:56;10.30;99.90
563;DHT22;266;49.514;8.294;2023-04-24T05:52:24;10.40;99.90
563;DHT22;266;49.514;8.294;2023-04-24T05:54:52;10.40;99.90
563;DHT22;266;49.514;8.294;2023-04-24T05:57:20;10.30;99.90
563;DHT22;266;49.514;8.294;2023-04-24T05:59:49;10.30;99.90
563;DHT22;266;49.514;8.294;2023-04-24T06:02:18;10.30;99.90
563;DHT22;266;49.514;8.294;2023-04-24T06:04:46;10.30;99.90
563;DHT22;266;49.514;8.294;2023-04-24T06:07:14;10.30;99.90
563;DHT22;266;49.514;8.294;2023-04-24T06:09:42;10.40;99.90
563;DHT22;266;49.514;8.294;2023-04-24T06:12:10;10.40;99.90
563;DHT22;266;49.514;8.294;2023-04-24T06:14:38;10.40;99.90
563;DHT22;266;49.514;8.294;2023-04-24T06:17:07;10.40;99.90
563;DHT22;266;49.514;8.294;2023-04-24T06:19:35;10.50;99.90
563;DHT22;266;49.514;8.294;2023-04-24T06:22:03;10.50;99.90
563;DHT22;266;49.514;8.294;2023-04-24T06:24:31;10.50;99.90
563;DHT22;266;49.514;8.294;2023-04-24T06:26:59;10.50;99.90
563;DHT22;266;49.514;8.294;2023-04-24T06:29:27;10.50;99.90
563;DHT22;266;49.514;8.294;2023-04-24T06:31:55;10.40;99.90
563;DHT22;266;49.514;8.294;2023-04-24T06:34:25;10.50;99.90
563;DHT22;266;49.514;8.294;2023-04-24T06:36:53;10.40;99.90
563;DHT22;266;49.514;8.294;2023-04-24T06:39:22;10.40;99.90
563;DHT22;266;49.514;8.294;2023-04-24T06:41:50;10.40;99.90
563;DHT22;266;49.514;8.294;2023-04-24T06:44:17;10.40;99.90
563;DHT22;266;49.514;8.294;2023-04-24T06:46:45;10.30;99.90
563;DHT22;266;49.514;8.294;2023-04-24T06:49:14;10.30;99.90
563;DHT22;266;49.514;8.294;2023-04-24T06:51:43;10.40;99.90
563;DHT22;266;49.514;8.294;2023-04-24T06:54:11;10.40;99.90
563;DHT22;266;49.514;8.294;2023-04-24T06:56:39;10.50;99.90
563;DHT22;266;49.514;8.294;2023-04-24T06:59:07;10.60;99.90
563;DHT22;266;49.514;8.294;2023-04-24T07:01:35;10.70;99.90
563;DHT22;266;49.514;8.294;2023-04-24T07:04:03;10.80;99.90
563;DHT22;266;49.514;8.294;2023-04-24T07:06:31;10.90;99.90
563;DHT22;266;49.514;8.294;2023-04-24T07:09:01;11.00;99.90
563;DHT22;266;49.514;8.294;2023-04-24T07:11:30;11.20;99.90
563;DHT22;266;49.514;8.294;2023-04-24T07:13:58;11.30;99.90
563;DHT22;266;49.514;8.294;2023-04-24T07:16:26;11.30;99.90
563;DHT22;266;49.514;8.294;2023-04-24T07:18:54;11.40;99.90
563;DHT22;266;49.514;8.294;2023-04-24T07:21:22;11.50;99.90
563;DHT22;266;49.514;8.294;2023-04-24T07:23:49;11.50;99.90
563;DHT22;266;49.514;8.294;2023-04-24T07:26:19;11.60;99.90
563;DHT22;266;49.514;8.294;2023-04-24T07:28:47;11.60;99.90
563;DHT22;266;49.514;8.294;2023-04-24T07:31:15;11.80;99.90
563;DHT22;266;49.514;8.294;2023-04-24T07:33:43;11.90;99.90
563;DHT22;266;49.514;8.294;2023-04-24T07:36:11;12.10;99.90
563;DHT22;266;49.514;8.294;2023-04-24T07:38:42;12.20;99.90
563;DHT22;266;49.514;8.294;2023-04-24T07:41:10;12.00;99.90
563;DHT22;266;49.514;8.294;2023-04-24T07:43:40;11.90;99.90
563;DHT22;266;49.514;8.294;2023-04-24T07:46:08;11.90;99.90
563;DHT22;266;49.514;8.294;2023-04-24T07:48:36;12.00;99.90
563;DHT22;266;49.514;8.294;2023-04-24T07:51:04;12.10;99.90
563;DHT22;266;49.514;8.294;2023-04-24T07:53:32;12.10;99.90
563;DHT22;266;49.514;8.294;2023-04-24T07:56:00;12.20;99.90
563;DHT22;266;49.514;8.294;2023-04-24T07:58:28;12.50;99.90
563;DHT22;266;49.514;8.294;2023-04-24T08:00:57;12.60;99.90
563;DHT22;266;49.514;8.294;2023-04-24T08:03:25;12.80;99.90
563;DHT22;266;49.514;8.294;2023-04-24T08:05:53;13.00;99.90
563;DHT22;266;49.514;8.294;2023-04-24T08:08:22;13.00;99.90
563;DHT22;266;49.514;8.294;2023-04-24T08:10:50;12.80;99.90
563;DHT22;266;49.514;8.294;2023-04-24T08:13:18;12.70;99.90
563;DHT22;266;49.514;8.294;2023-04-24T08:15:46;12.50;99.90
563;DHT22;266;49.514;8.294;2023-04-24T08:18:15;12.40;99.90
563;DHT22;266;49.514;8.294;2023-04-24T08:20:44;12.50;99.90
563;DHT22;266;49.514;8.294;2023-04-24T08:23:12;12.70;99.90
563;DHT22;266;49.514;8.294;2023-04-24T08:25:40;12.80;99.90
563;DHT22;266;49.514;8.294;2023-04-24T08:28:09;12.90;99.90
563;DHT22;266;49.514;8.294;2023-04-24T08:30:37;12.70;99.90
563;DHT22;266;49.514;8.294;2023-04-24T08:33:05;12.80;99.90
563;DHT22;266;49.514;8.294;2023-04-24T08:35:35;12.70;99.90
563;DHT22;266;49.514;8.294;2023-04-24T08:38:03;12.70;99.90
563;DHT22;266;49.514;8.294;2023-04-24T08:40:33;12.60;99.90
563;DHT22;266;49.514;8.294;2023-04-24T08:43:03;12.50;99.90
563;DHT22;266;49.514;8.294;2023-04-24T08:45:32;12.40;99.90
563;DHT22;266;49.514;8.294;2023-04-24T08:48:01;12.40;99.90
563;DHT22;266;49.514;8.294;2023-04-24T08:50:30;12.50;99.90
563;DHT22;266;49.514;8.294;2023-04-24T08:53:01;12.40;99.90
563;DHT22;266;49.514;8.294;2023-04-24T08:55:31;12.50;99.90
563;DHT22;266;49.514;8.294;2023-04-24T08:58:01;12.40;99.90
563;DHT22;266;49.514;8.294;2023-04-24T09:00:30;12.20;99.90
563;DHT22;266;49.514;8.294;2023-04-24T09:03:00;12.20;99.90
563;DHT22;266;49.514;8.294;2023-04-24T09:05:28;12.10;99.90
563;DHT22;266;49.514;8.294;2023-04-24T09:07:57;12.40;99.90
563;DHT22;266;49.514;8.294;2023-04-24T09:10:26;12.70;99.90
563;DHT22;266;49.514;8.294;2023-04-24T09:12:58;13.10;99.90
563;DHT22;266;49.514;8.294;2023-04-24T09:15:28;13.50;99.90
563;DHT22;266;49.514;8.294;2023-04-24T09:17:56;13.80;99.90
563;DHT22;266;49.514;8.294;2023-04-24T09:20:25;13.60;99.90
563;DHT22;266;49.514;8.294;2023-04-24T09:22:54;13.50;99.90
563;DHT22;266;49.514;8.294;2023-04-24T09:25:26;13.30;99.90
563;DHT22;266;49.514;8.294;2023-04-24T09:28:01;13.70;99.90
563;DHT22;266;49.514;8.294;2023-04-24T09:30:29;13.60;99.90
563;DHT22;266;49.514;8.294;2023-04-24T09:33:13;13.40;99.90
563;DHT22;266;49.514;8.294;2023-04-24T09:35:43;13.30;99.90
563;DHT22;266;49.514;8.294;2023-04-24T09:38:16;13.20;99.90
563;DHT22;266;49.514;8.294;2023-04-24T09:40:45;13.20;99.90
563;DHT22;266;49.514;8.294;2023-04-24T09:43:13;13.20;99.90
563;DHT22;266;49.514;8.294;2023-04-24T09:45:41;13.20;99.90
563;DHT22;266;49.514;8.294;2023-04-24T09:48:10;13.20;99.90
563;DHT22;266;49.514;8.294;2023-04-24T09:50:38;13.20;99.90
563;DHT22;266;49.514;8.294;2023-04-24T09:53:06;13.30;99.90
563;DHT22;266;49.514;8.294;2023-04-24T09:55:39;13.30;99.90
563;DHT22;266;49.514;8.294;2023-04-24T09:58:09;13.60;99.90
563;DHT22;266;49.514;8.294;2023-04-24T10:00:37;13.70;99.90
563;DHT22;266;49.514;8.294;2023-04-24T10:03:06;13.70;99.90
563;DHT22;266;49.514;8.294;2023-04-24T10:05:36;13.50;99.90
563;DHT22;266;49.514;8.294;2023-04-24T10:08:06;13.10;99.90
563;DHT22;266;49.514;8.294;2023-04-24T10:10:38;13.00;99.90
563;DHT22;266;49.514;8.294;2023-04-24T10:13:08;13.40;99.90
563;DHT22;266;49.514;8.294;2023-04-24T10:15:37;14.10;99.90
563;DHT22;266;49.514;8.294;2023-04-24T10:18:05;14.60;99.90
563;DHT22;266;49.514;8.294;2023-04-24T10:20:35;14.90;99.90
563;DHT22;266;49.514;8.294;2023-04-24T10:23:04;15.00;99.90
563;DHT22;266;49.514;8.294;2023-04-24T10:25:34;15.00;99.90
563;DHT22;266;49.514;8.294;2023-04-24T10:28:03;15.10;99.90
563;DHT22;266;49.514;8.294;2023-04-24T10:30:35;15.40;99.90
563;DHT22;266;49.514;8.294;2023-04-24T10:33:04;15.40;99.90
563;DHT22;266;49.514;8.294;2023-04-24T10:35:39;15.40;99.90
563;DHT22;266;49.514;8.294;2023-04-24T10:38:10;15.30;99.90
563;DHT22;266;49.514;8.294;2023-04-24T10:40:39;15.20;99.90
563;DHT22;266;49.514;8.294;2023-04-24T10:43:08;15.30;99.90
563;DHT22;266;49.514;8.294;2023-04-24T10:45:39;15.60;99.90
563;DHT22;266;49.514;8.294;2023-04-24T10:48:08;15.10;99.90
563;DHT22;266;49.514;8.294;2023-04-24T10:50:44;14.70;99.90
563;DHT22;266;49.514;8.294;2023-04-24T10:53:15;14.60;99.90
563;DHT22;266;49.514;8.294;2023-04-24T10:55:45;14.80;99.90
563;DHT22;266;49.514;8.294;2023-04-24T10:58:14;14.90;99.90
563;DHT22;266;49.514;8.294;2023-04-24T11:00:56;15.10;99.90
563;DHT22;266;49.514;8.294;2023-04-24T11:03:26;15.40;99.90
563;DHT22;266;49.514;8.294;2023-04-24T11:05:58;15.60;99.90
563;DHT22;266;49.514;8.294;2023-04-24T11:08:31;15.90;99.90
563;DHT22;266;49.514;8.294;2023-04-24T11:11:03;16.00;99.90
563;DHT22;266;49.514;8.294;2023-04-24T11:16:39;15.80;99.90
563;DHT22;266;49.514;8.294;2023-04-24T11:19:19;15.80;99.90
563;DHT22;266;49.514;8.294;2023-04-24T11:21:49;16.10;99.90
563;DHT22;266;49.514;8.294;2023-04-24T11:24:30;16.50;99.90
563;DHT22;266;49.514;8.294;2023-04-24T11:27:11;16.40;99.90
563;DHT22;266;49.514;8.294;2023-04-24T11:29:45;16.40;99.90
563;DHT22;266;49.514;8.294;2023-04-24T11:32:34;16.10;99.90
563;DHT22;266;49.514;8.294;2023-04-24T11:35:04;15.50;99.90
563;DHT22;266;49.514;8.294;2023-04-24T11:37:34;15.10;99.90
563;DHT22;266;49.514;8.294;2023-04-24T11:40:04;14.80;99.90
563;DHT22;266;49.514;8.294;2023-04-24T11:42:36;14.40;99.90
563;DHT22;266;49.514;8.294;2023-04-24T11:45:08;14.00;99.90
563;DHT22;266;49.514;8.294;2023-04-24T11:47:39;13.90;99.90
563;DHT22;266;49.514;8.294;2023-04-24T11:50:10;13.80;99.90
563;DHT22;266;49.514;8.294;2023-04-24T11:52:40;14.20;99.90
563;DHT22;266;49.514;8.294;2023-04-24T11:55:12;14.60;99.90
563;DHT22;266;49.514;8.294;2023-04-24T11:57:51;15.10;99.90
563;DHT22;266;49.514;8.294;2023-04-24T12:00:22;15.70;99.90
563;DHT22;266;49.514;8.294;2023-04-24T12:02:52;15.90;99.90
563;DHT22;266;49.514;8.294;2023-04-24T12:05:30;16.30;99.90
563;DHT22;266;49.514;8.294;2023-04-24T12:07:59;16.50;99.90
563;DHT22;266;49.514;8.294;2023-04-24T12:10:28;16.70;99.90
563;DHT22;266;49.514;8.294;2023-04-24T12:12:57;16.00;99.90
563;DHT22;266;49.514;8.294;2023-04-24T12:15:25;15.80;99.90
563;DHT22;266;49.514;8.294;2023-04-24T12:17:56;16.00;99.90
563;DHT22;266;49.514;8.294;2023-04-24T12:20:25;16.50;99.90
563;DHT22;266;49.514;8.294;2023-04-24T12:22:54;17.20;99.90
563;DHT22;266;49.514;8.294;2023-04-24T12:25:24;17.20;99.90
563;DHT22;266;49.514;8.294;2023-04-24T12:27:53;17.00;99.90
563;DHT22;266;49.514;8.294;2023-04-24T12:30:26;16.20;99.90
563;DHT22;266;49.514;8.294;2023-04-24T12:32:58;15.70;99.90
563;DHT22;266;49.514;8.294;2023-04-24T12:35:28;15.80;99.90
563;DHT22;266;49.514;8.294;2023-04-24T12:38:05;16.50;99.90
563;DHT22;266;49.514;8.294;2023-04-24T12:40:33;16.90;99.90
563;DHT22;266;49.514;8.294;2023-04-24T12:43:01;16.70;99.90
563;DHT22;266;49.514;8.294;2023-04-24T12:45:29;16.30;99.90
563;DHT22;266;49.514;8.294;2023-04-24T12:47:58;16.30;99.90
563;DHT22;266;49.514;8.294;2023-04-24T12:50:26;16.90;99.90
563;DHT22;266;49.514;8.294;2023-04-24T12:52:54;17.20;99.90
563;DHT22;266;49.514;8.294;2023-04-24T12:55:22;17.20;99.90
563;DHT22;266;49.514;8.294;2023-04-24T12:57:50;17.00;99.90
563;DHT22;266;49.514;8.294;2023-04-24T13:00:18;16.70;99.90
563;DHT22;266;49.514;8.294;2023-04-24T13:02:46;16.50;99.90
563;DHT22;266;49.514;8.294;2023-04-24T13:05:16;16.60;99.90
563;DHT22;266;49.514;8.294;2023-04-24T13:07:44;16.70;99.90
563;DHT22;266;49.514;8.294;2023-04-24T13:10:12;17.00;99.90
563;DHT22;266;49.514;8.294;2023-04-24T13:12:40;16.80;99.90
563;DHT22;266;49.514;8.294;2023-04-24T13:15:12;16.60;99.90
563;DHT22;266;49.514;8.294;2023-04-24T13:17:40;16.40;99.90
563;DHT22;266;49.514;8.294;2023-04-24T13:20:09;16.20;99.90
563;DHT22;266;49.514;8.294;2023-04-24T13:22:38;16.30;99.90
563;DHT22;266;49.514;8.294;2023-04-24T13:25:10;16.50;99.90
563;DHT22;266;49.514;8.294;2023-04-24T13:27:38;16.70;99.90
563;DHT22;266;49.514;8.294;2023-04-24T13:30:07;16.70;99.90
563;DHT22;266;49.514;8.294;2023-04-24T13:32:35;16.40;99.90
563;DHT22;266;49.514;8.294;2023-04-24T13:35:04;16.10;99.90
563;DHT22;266;49.514;8.294;2023-04-24T13:37:32;16.00;99.90
563;DHT22;266;49.514;8.294;2023-04-24T13:40:01;15.90;99.90
563;DHT22;266;49.514;8.294;2023-04-24T13:42:33;15.80;99.90
563;DHT22;266;49.514;8.294;2023-04-24T13:45:00;15.70;99.90
563;DHT22;266;49.514;8.294;2023-04-24T13:47:49;15.60;99.90
563;DHT22;266;49.514;8.294;2023-04-24T13:50:18;15.60;99.90
563;DHT22;266;49.514;8.294;2023-04-24T13:52:46;15.50;99.90
563;DHT22;266;49.514;8.294;2023-04-24T13:55:15;15.20;99.90
563;DHT22;266;49.514;8.294;2023-04-24T13:57:43;15.10;99.90
563;DHT22;266;49.514;8.294;2023-04-24T14:00:12;15.00;99.90
563;DHT22;266;49.514;8.294;2023-04-24T14:02:40;14.90;99.90
563;DHT22;266;49.514;8.294;2023-04-24T14:05:08;14.80;99.90
563;DHT22;266;49.514;8.294;2023-04-24T14:07:37;14.60;99.90
563;DHT22;266;49.514;8.294;2023-04-24T14:10:06;14.50;99.90
563;DHT22;266;49.514;8.294;2023-04-24T14:12:35;14.40;99.90
563;DHT22;266;49.514;8.294;2023-04-24T14:15:04;14.50;99.90
563;DHT22;266;49.514;8.294;2023-04-24T14:17:32;14.70;99.90
563;DHT22;266;49.514;8.294;2023-04-24T14:20:00;15.00;99.90
563;DHT22;266;49.514;8.294;2023-04-24T14:22:28;15.70;99.90
563;DHT22;266;49.514;8.294;2023-04-24T14:24:56;16.30;99.90
563;DHT22;266;49.514;8.294;2023-04-24T14:27:24;16.80;99.90
563;DHT22;266;49.514;8.294;2023-04-24T14:29:54;17.00;99.90
563;DHT22;266;49.514;8.294;2023-04-24T14:32:22;17.10;99.90
563;DHT22;266;49.514;8.294;2023-04-24T14:34:50;17.10;99.90
563;DHT22;266;49.514;8.294;2023-04-24T14:37:19;16.80;99.90
563;DHT22;266;49.514;8.294;2023-04-24T14:39:47;16.40;99.90
563;DHT22;266;49.514;8.294;2023-04-24T14:42:32;15.70;99.90
563;DHT22;266;49.514;8.294;2023-04-24T14:45:02;15.20;99.90
563;DHT22;266;49.514;8.294;2023-04-24T14:47:30;14.90;99.90
563;DHT22;266;49.514;8.294;2023-04-24T14:49:58;14.50;99.90
563;DHT22;266;49.514;8.294;2023-04-24T14:52:26;14.30;99.90
563;DHT22;266;49.514;8.294;2023-04-24T14:54:54;13.80;99.90
563;DHT22;266;49.514;8.294;2023-04-24T14:57:22;13.40;99.90
563;DHT22;266;49.514;8.294;2023-04-24T14:59:50;13.10;99.90
563;DHT22;266;49.514;8.294;2023-04-24T15:02:20;13.00;99.90
563;DHT22;266;49.514;8.294;2023-04-24T15:04:48;12.80;99.90
563;DHT22;266;49.514;8.294;2023-04-24T15:07:16;12.70;99.90
563;DHT22;266;49.514;8.294;2023-04-24T15:09:44;12.70;99.90
563;DHT22;266;49.514;8.294;2023-04-24T15:12:13;12.70;99.90
563;DHT22;266;49.514;8.294;2023-04-24T15:14:41;12.80;99.90
563;DHT22;266;49.514;8.294;2023-04-24T15:17:09;13.00;99.90
563;DHT22;266;49.514;8.294;2023-04-24T15:19:38;13.10;99.90
563;DHT22;266;49.514;8.294;2023-04-24T15:22:06;13.30;99.90
563;DHT22;266;49.514;8.294;2023-04-24T15:24:34;13.50;99.90
563;DHT22;266;49.514;8.294;2023-04-24T15:27:02;13.50;99.90
563;DHT22;266;49.514;8.294;2023-04-24T15:29:30;13.60;99.90
563;DHT22;266;49.514;8.294;2023-04-24T15:31:58;13.50;99.90
563;DHT22;266;49.514;8.294;2023-04-24T15:34:27;13.40;99.90
563;DHT22;266;49.514;8.294;2023-04-24T15:36:56;13.30;99.90
563;DHT22;266;49.514;8.294;2023-04-24T15:39:24;13.30;99.90
563;DHT22;266;49.514;8.294;2023-04-24T15:41:52;13.20;99.90
563;DHT22;266;49.514;8.294;2023-04-24T15:44:21;13.20;99.90
563;DHT22;266;49.514;8.294;2023-04-24T15:46:49;13.10;99.90
563;DHT22;266;49.514;8.294;2023-04-24T15:49:17;13.00;99.90
563;DHT22;266;49.514;8.294;2023-04-24T15:51:46;13.00;99.90
563;DHT22;266;49.514;8.294;2023-04-24T15:54:15;12.90;99.90
563;DHT22;266;49.514;8.294;2023-04-24T15:56:43;12.90;99.90
563;DHT22;266;49.514;8.294;2023-04-24T15:59:11;12.90;99.90
563;DHT22;266;49.514;8.294;2023-04-24T16:01:39;12.90;99.90
563;DHT22;266;49.514;8.294;2023-04-24T16:04:07;12.90;99.90
563;DHT22;266;49.514;8.294;2023-04-24T16:06:35;13.00;99.90
563;DHT22;266;49.514;8.294;2023-04-24T16:09:03;13.10;99.90
563;DHT22;266;49.514;8.294;2023-04-24T16:11:32;13.20;99.90
563;DHT22;266;49.514;8.294;2023-04-24T16:14:02;13.40;99.90
563;DHT22;266;49.514;8.294;2023-04-24T16:16:29;13.70;99.90
563;DHT22;266;49.514;8.294;2023-04-24T16:18:57;13.70;99.90
563;DHT22;266;49.514;8.294;2023-04-24T16:21:25;13.80;99.90
563;DHT22;266;49.514;8.294;2023-04-24T16:23:53;13.80;99.90
563;DHT22;266;49.514;8.294;2023-04-24T16:26:21;13.90;99.90
563;DHT22;266;49.514;8.294;2023-04-24T16:28:50;14.10;99.90
563;DHT22;266;49.514;8.294;2023-04-24T16:31:18;14.30;99.90
563;DHT22;266;49.514;8.294;2023-04-24T16:33:46;14.50;99.90
563;DHT22;266;49.514;8.294;2023-04-24T16:36:14;14.70;99.90
563;DHT22;266;49.514;8.294;2023-04-24T16:38:42;14.90;99.90
563;DHT22;266;49.514;8.294;2023-04-24T16:41:10;14.90;99.90
563;DHT22;266;49.514;8.294;2023-04-24T16:43:38;14.90;99.90
563;DHT22;266;49.514;8.294;2023-04-24T16:46:07;14.90;99.90
563;DHT22;266;49.514;8.294;2023-04-24T16:48:35;14.90;99.90
563;DHT22;266;49.514;8.294;2023-04-24T16:51:03;14.80;99.90